Time;durP1;ratioP1;P1;durP2;ratioP2;P2;SDS_P1;SDS_P2;PMS_P1;PMS_P2;Temp;Humidity;BMP_temperature;BMP_pressure;BME280_temperature;BME280_humidity;BME280_pressure;Samples;Min_cycle;Max_cycle;Signal;HPM_P1;HPM_P2
2023/02/20 00:00:21;;;;;;;20.70;12.20;;;6.30;99.90;;;;;;5096870;28;20221;-80
2023/02/20 00:02:49;;;;;;;19.80;11.77;;;6.30;99.90;;;;;;5082410;28;20245;-81
2023/02/20 00:05:19;;;;;;;23.07;12.27;;;6.30;99.90;;;;;;5096164;28;20403;-80
2023/02/20 00:07:46;;;;;;;18.10;11.50;;;6.30;99.90;;;;;;5096224;28;20212;-81
2023/02/20 00:10:14;;;;;;;18.07;10.83;;;6.30;99.90;;;;;;5096702;28;20205;-80
2023/02/20 00:12:42;;;;;;;22.83;11.73;;;6.30;99.90;;;;;;5098428;28;20201;-79
2023/02/20 00:15:18;;;;;;;22.03;11.57;;;6.30;99.90;;;;;;5098795;28;20277;-80
2023/02/20 00:17:46;;;;;;;21.83;12.07;;;6.30;99.90;;;;;;5099130;28;20197;-81
2023/02/20 00:20:14;;;;;;;24.40;12.10;;;6.40;99.90;;;;;;5097814;28;20212;-81
2023/02/20 00:22:41;;;;;;;21.17;10.63;;;6.40;99.90;;;;;;5096792;28;20201;-79
2023/02/20 00:25:08;;;;;;;19.47;11.37;;;6.40;99.90;;;;;;5096182;28;20644;-81
2023/02/20 00:27:35;;;;;;;18.43;11.07;;;6.50;99.90;;;;;;5096398;28;20209;-81
2023/02/20 00:30:02;;;;;;;20.20;11.47;;;6.60;99.90;;;;;;5096603;28;20205;-80
2023/02/20 00:32:32;;;;;;;20.33;11.40;;;6.50;99.90;;;;;;5096260;28;20213;-80
2023/02/20 00:34:59;;;;;;;15.40;10.70;;;6.60;99.90;;;;;;5096063;28;20613;-81
2023/02/20 00:37:26;;;;;;;23.25;14.52;;;6.60;99.90;;;;;;5096102;28;20793;-79
2023/02/20 00:39:53;;;;;;;23.90;13.37;;;6.60;99.90;;;;;;5098064;28;20213;-83
2023/02/20 00:42:20;;;;;;;24.03;12.97;;;6.70;99.90;;;;;;5100328;28;20201;-80
2023/02/20 00:44:47;;;;;;;23.63;12.73;;;6.70;99.90;;;;;;5100117;28;20217;-81
2023/02/20 00:47:14;;;;;;;22.47;14.00;;;6.80;99.90;;;;;;5100719;28;20197;-79
2023/02/20 00:49:42;;;;;;;27.30;13.33;;;6.80;99.90;;;;;;5099786;28;20201;-82
2023/02/20 00:52:09;;;;;;;22.40;13.03;;;6.90;99.90;;;;;;5094379;28;20201;-80
2023/02/20 00:54:36;;;;;;;27.73;13.70;;;6.90;99.90;;;;;;5080482;28;20199;-80
2023/02/20 00:57:03;;;;;;;22.67;13.50;;;7.00;99.90;;;;;;5095520;28;20201;-81
2023/02/20 00:59:29;;;;;;;23.20;13.63;;;7.00;99.90;;;;;;5094658;28;20204;-81
2023/02/20 01:01:56;;;;;;;27.90;13.27;;;7.00;99.90;;;;;;5094841;28;20232;-80
2023/02/20 01:04:24;;;;;;;22.23;13.97;;;7.10;99.90;;;;;;5094819;28;20207;-82
2023/02/20 01:06:53;;;;;;;25.80;14.03;;;7.10;99.90;;;;;;5094618;28;20658;-79
2023/02/20 01:09:20;;;;;;;24.00;13.87;;;7.00;99.90;;;;;;5096904;28;20202;-83
2023/02/20 01:11:47;;;;;;;27.30;12.53;;;7.10;99.90;;;;;;5097671;28;20197;-78
2023/02/20 01:14:14;;;;;;;22.67;12.10;;;7.00;99.90;;;;;;5098113;28;20268;-82
2023/02/20 01:16:45;;;;;;;20.93;13.20;;;7.20;99.90;;;;;;5097383;28;20205;-81
2023/02/20 01:19:14;;;;;;;23.90;12.73;;;7.10;99.90;;;;;;5097440;28;20201;-78
2023/02/20 01:21:41;;;;;;;23.10;12.00;;;7.10;99.90;;;;;;5095331;28;20566;-83
2023/02/20 01:24:10;;;;;;;21.77;13.00;;;7.10;99.90;;;;;;5090773;28;20198;-78
2023/02/20 01:26:37;;;;;;;24.83;12.43;;;7.20;99.90;;;;;;5090492;28;20229;-79
2023/02/20 01:29:04;;;;;;;20.00;11.43;;;7.20;99.90;;;;;;5085313;28;20193;-80
2023/02/20 01:31:31;;;;;;;23.90;11.47;;;7.20;99.90;;;;;;5096857;28;20201;-81
2023/02/20 01:33:58;;;;;;;18.30;12.20;;;7.20;99.90;;;;;;5098815;28;20426;-80
2023/02/20 01:36:26;;;;;;;26.83;11.70;;;7.30;99.90;;;;;;5096674;28;20550;-80
2023/02/20 01:38:54;;;;;;;19.73;10.40;;;7.20;99.90;;;;;;5093774;28;20194;-81
2023/02/20 01:41:24;;;;;;;26.73;10.70;;;7.30;99.90;;;;;;5092655;28;20277;-81
2023/02/20 01:43:52;;;;;;;19.33;10.97;;;7.40;99.90;;;;;;5093254;28;20643;-82
2023/02/20 01:46:53;;;;;;;19.77;10.40;;;7.50;99.90;;;;;;5090954;28;20209;-80
2023/02/20 01:49:25;;;;;;;19.87;10.40;;;7.50;99.90;;;;;;5087031;28;20272;-83
2023/02/20 01:51:57;;;;;;;22.90;10.20;;;7.50;99.90;;;;;;5094542;28;20208;-83
2023/02/20 01:54:26;;;;;;;21.40;9.43;;;7.40;99.90;;;;;;5094506;28;20250;-78
2023/02/20 01:56:58;;;;;;;24.87;10.10;;;7.60;99.90;;;;;;5094985;28;20198;-78
2023/02/20 01:59:28;;;;;;;18.93;10.27;;;7.60;99.90;;;;;;5091546;28;20265;-78
2023/02/20 02:01:55;;;;;;;21.80;10.07;;;7.60;99.90;;;;;;5092835;28;20229;-78
2023/02/20 02:04:22;;;;;;;18.70;9.77;;;7.60;99.90;;;;;;5093876;28;20197;-78
2023/02/20 02:06:51;;;;;;;21.07;9.23;;;7.60;99.90;;;;;;5094340;28;20563;-80
2023/02/20 02:09:27;;;;;;;20.33;9.33;;;7.60;99.90;;;;;;5092485;28;20201;-77
2023/02/20 02:11:57;;;;;;;18.47;8.87;;;7.60;99.90;;;;;;5086045;28;20205;-84
2023/02/20 02:14:27;;;;;;;22.07;9.97;;;7.60;99.90;;;;;;5095273;28;20224;-82
2023/02/20 02:17:11;;;;;;;19.40;8.93;;;7.70;99.90;;;;;;5083956;28;20198;-80
2023/02/20 02:20:16;;;;;;;19.00;8.90;;;7.60;99.90;;;;;;5093041;28;20203;-80
2023/02/20 02:23:19;;;;;;;16.00;8.70;;;7.40;99.90;;;;;;5098313;28;20208;-78
2023/02/20 02:25:58;;;;;;;23.90;9.37;;;7.50;99.90;;;;;;5096034;28;20211;-82
2023/02/20 02:29:10;;;;;;;21.47;8.80;;;7.40;99.90;;;;;;5089216;28;20296;-80
2023/02/20 02:32:04;;;;;;;15.73;8.63;;;7.40;99.90;;;;;;5086255;28;20316;-81
2023/02/20 02:35:10;;;;;;;17.57;8.80;;;7.40;99.90;;;;;;5084826;28;20209;-77
2023/02/20 02:37:48;;;;;;;22.03;9.63;;;7.40;99.90;;;;;;5098293;28;20201;-84
2023/02/20 02:40:23;;;;;;;17.47;8.60;;;7.40;99.90;;;;;;5097885;28;20196;-81
2023/02/20 02:42:59;;;;;;;17.43;8.37;;;7.30;99.90;;;;;;5098599;28;20209;-80
2023/02/20 02:45:33;;;;;;;22.47;8.90;;;7.30;99.90;;;;;;5098593;28;20200;-80
2023/02/20 02:48:05;;;;;;;17.50;8.60;;;7.30;99.90;;;;;;5098718;28;20244;-79
2023/02/20 02:50:35;;;;;;;18.27;8.70;;;7.40;99.90;;;;;;5099360;28;20256;-80
2023/02/20 02:53:07;;;;;;;17.60;8.17;;;7.30;99.90;;;;;;5098966;28;20737;-79
2023/02/20 02:55:33;;;;;;;21.00;8.93;;;7.20;99.90;;;;;;5085927;28;20202;-80
2023/02/20 02:58:02;;;;;;;18.97;8.37;;;7.30;99.90;;;;;;5098262;28;20197;-80
2023/02/20 03:00:35;;;;;;;24.40;8.57;;;7.30;99.90;;;;;;5097594;28;20212;-81
2023/02/20 03:03:09;;;;;;;29.10;8.60;;;7.30;99.90;;;;;;5098341;28;20197;-79
2023/02/20 03:05:45;;;;;;;17.87;8.20;;;7.30;99.90;;;;;;5098221;28;20234;-80
2023/02/20 03:08:29;;;;;;;18.90;8.40;;;7.30;99.90;;;;;;5097470;28;20204;-77
2023/02/20 03:10:59;;;;;;;21.40;8.30;;;7.30;99.90;;;;;;5096751;28;20583;-78
2023/02/20 03:16:14;;;;;;;23.30;7.50;;;7.30;99.90;;;;;;5097566;28;20212;-81
2023/02/20 03:18:41;;;;;;;18.83;8.30;;;7.30;99.90;;;;;;5095633;28;20207;-81
2023/02/20 03:21:13;;;;;;;22.70;7.67;;;7.40;99.90;;;;;;5077394;28;20727;-81
2023/02/20 03:23:45;;;;;;;16.87;7.87;;;7.50;99.90;;;;;;5093883;28;20205;-78
2023/02/20 03:26:17;;;;;;;18.97;7.40;;;7.50;99.90;;;;;;5096285;28;20217;-79
2023/02/20 03:28:54;;;;;;;14.57;6.93;;;7.60;99.90;;;;;;5096087;28;20204;-79
2023/02/20 03:31:31;;;;;;;13.40;6.53;;;7.60;99.90;;;;;;5096926;28;20212;-82
2023/02/20 03:45:23;;;;;;;14.10;6.50;;;7.70;99.90;;;;;;5088681;28;20569;-82
2023/02/20 03:47:56;;;;;;;19.27;7.60;;;7.70;99.90;;;;;;5100140;28;21708;-79
2023/02/20 03:53:08;;;;;;;18.23;7.00;;;7.80;99.90;;;;;;5095472;28;20593;-82
2023/02/20 03:55:41;;;;;;;18.93;7.10;;;7.80;99.90;;;;;;5095210;28;20201;-80
2023/02/20 03:58:11;;;;;;;16.73;6.10;;;7.80;99.90;;;;;;5082764;28;20201;-79
2023/02/20 04:00:42;;;;;;;16.23;6.33;;;7.80;99.90;;;;;;5094939;28;20574;-80
2023/02/20 04:03:14;;;;;;;15.93;6.17;;;7.80;99.90;;;;;;5094832;28;20308;-78
2023/02/20 04:05:46;;;;;;;20.57;7.03;;;7.80;99.90;;;;;;5081758;28;20316;-81
2023/02/20 04:08:18;;;;;;;15.57;6.63;;;7.80;99.90;;;;;;5094974;28;20198;-80
2023/02/20 04:10:53;;;;;;;17.73;6.70;;;7.80;99.90;;;;;;5094924;28;20200;-82
2023/02/20 04:13:20;;;;;;;15.90;6.90;;;7.80;99.90;;;;;;5095455;28;20212;-80
2023/02/20 04:15:49;;;;;;;13.90;6.30;;;7.80;99.90;;;;;;5095336;28;20225;-82
2023/02/20 04:18:18;;;;;;;16.43;6.43;;;7.90;99.90;;;;;;5095715;28;20209;-84
2023/02/20 04:20:48;;;;;;;16.33;7.20;;;7.90;99.90;;;;;;5094610;28;20631;-82
2023/02/20 04:23:19;;;;;;;11.67;6.03;;;7.80;99.90;;;;;;5095941;28;20208;-83
2023/02/20 04:25:51;;;;;;;19.20;6.47;;;7.90;99.90;;;;;;5096070;28;20280;-80
2023/02/20 04:28:20;;;;;;;17.95;7.40;;;7.90;99.90;;;;;;5093025;28;20866;-82
2023/02/20 04:30:48;;;;;;;18.23;6.50;;;7.90;99.90;;;;;;5092566;28;20579;-81
2023/02/20 04:33:18;;;;;;;14.13;5.43;;;7.90;99.90;;;;;;5087840;28;20281;-82
2023/02/20 04:35:45;;;;;;;13.73;5.70;;;7.90;99.90;;;;;;5085462;28;20878;-81
2023/02/20 04:38:12;;;;;;;10.83;5.30;;;7.80;99.90;;;;;;5095916;28;20206;-81
2023/02/20 04:40:40;;;;;;;11.27;5.53;;;7.80;99.90;;;;;;5095628;28;20208;-82
2023/02/20 04:43:08;;;;;;;12.37;6.20;;;7.80;99.90;;;;;;5095351;28;20233;-83
2023/02/20 04:45:36;;;;;;;19.60;5.60;;;7.80;99.90;;;;;;5094256;28;20215;-79
2023/02/20 04:48:04;;;;;;;14.00;6.17;;;7.80;99.90;;;;;;5094508;28;20576;-81
2023/02/20 04:50:34;;;;;;;8.43;5.50;;;7.90;99.90;;;;;;5095929;28;20205;-81
2023/02/20 04:53:04;;;;;;;16.27;4.97;;;7.80;99.90;;;;;;5098048;28;20292;-81
2023/02/20 04:55:32;;;;;;;18.90;7.30;;;8.00;99.90;;;;;;5099587;28;20605;-83
2023/02/20 04:57:59;;;;;;;9.90;5.77;;;7.80;99.90;;;;;;5097076;28;20287;-80
2023/02/20 05:00:31;;;;;;;14.97;6.20;;;7.80;99.90;;;;;;5086800;28;20585;-80
2023/02/20 05:02:58;;;;;;;13.23;5.60;;;7.70;99.90;;;;;;5090580;28;20279;-80
2023/02/20 05:05:31;;;;;;;14.37;6.27;;;7.70;99.90;;;;;;5095048;28;20231;-83
2023/02/20 05:08:02;;;;;;;8.10;5.77;;;7.70;99.90;;;;;;5100294;28;20227;-82
2023/02/20 05:10:31;;;;;;;15.50;6.00;;;7.70;99.90;;;;;;5096347;28;20285;-77
2023/02/20 05:12:59;;;;;;;18.90;7.07;;;7.80;99.90;;;;;;5099591;28;20558;-81
2023/02/20 05:15:28;;;;;;;18.97;5.93;;;7.80;99.90;;;;;;5085769;28;20578;-83
2023/02/20 05:17:56;;;;;;;15.17;5.30;;;7.70;99.90;;;;;;5100079;28;20217;-81
2023/02/20 05:22:17;;;;;;;14.93;5.60;;;7.70;99.90;;;;;;5100522;28;20284;-81
2023/02/20 05:23:10;;;;;;;15.67;5.13;;;7.80;99.90;;;;;;5099536;28;20290;-80
2023/02/20 05:25:38;;;;;;;14.85;6.13;;;7.80;99.90;;;;;;5084038;28;20427;-82
2023/02/20 05:28:05;;;;;;;14.53;5.30;;;7.80;99.90;;;;;;5097775;28;20568;-82
2023/02/20 05:30:33;;;;;;;14.73;6.10;;;7.80;99.90;;;;;;5095677;28;20205;-83
2023/02/20 05:33:00;;;;;;;14.33;5.30;;;7.90;99.90;;;;;;5095280;28;20189;-79
2023/02/20 05:35:29;;;;;;;11.93;5.87;;;7.90;99.90;;;;;;5096468;28;20208;-83
2023/02/20 05:37:56;;;;;;;12.30;6.13;;;8.00;99.90;;;;;;5098159;28;20615;-81
2023/02/20 05:40:23;;;;;;;18.87;6.03;;;7.80;99.90;;;;;;5095921;28;20244;-78
2023/02/20 05:42:50;;;;;;;10.47;5.40;;;7.80;99.90;;;;;;5096677;28;20228;-82
2023/02/20 05:45:19;;;;;;;10.23;4.87;;;7.80;99.90;;;;;;5090841;28;20555;-81
2023/02/20 05:47:48;;;;;;;14.33;6.03;;;7.80;99.90;;;;;;5091195;28;20208;-80
2023/02/20 05:50:15;;;;;;;12.60;5.00;;;7.90;99.90;;;;;;5096605;28;20577;-81
2023/02/20 05:52:43;;;;;;;13.30;5.10;;;7.80;99.90;;;;;;5091191;28;20299;-80
2023/02/20 05:55:10;;;;;;;12.60;5.83;;;7.70;99.90;;;;;;5082367;28;20205;-78
2023/02/20 05:57:37;;;;;;;14.33;6.17;;;7.70;99.90;;;;;;5092551;28;20201;-79
2023/02/20 06:00:05;;;;;;;14.93;5.67;;;7.80;99.90;;;;;;5093603;28;20204;-82
2023/02/20 06:02:33;;;;;;;13.37;6.33;;;7.70;99.90;;;;;;5092673;28;20225;-81
2023/02/20 06:05:02;;;;;;;10.57;6.50;;;7.70;99.90;;;;;;5093015;28;20620;-80
2023/02/20 06:07:29;;;;;;;12.70;6.53;;;7.70;99.90;;;;;;5091658;28;20221;-81
2023/02/20 06:09:56;;;;;;;16.50;7.47;;;7.70;99.90;;;;;;5092710;28;20288;-81
2023/02/20 06:12:23;;;;;;;19.87;7.83;;;7.70;99.90;;;;;;5093126;28;20205;-81
2023/02/20 06:14:50;;;;;;;16.33;7.33;;;7.70;99.90;;;;;;5097287;28;20202;-80
2023/02/20 06:17:17;;;;;;;13.93;7.53;;;7.70;99.90;;;;;;5098539;28;20201;-81
2023/02/20 06:19:43;;;;;;;17.93;7.50;;;7.70;99.90;;;;;;5097593;28;20197;-77
2023/02/20 06:22:14;;;;;;;16.83;7.97;;;7.70;99.90;;;;;;5098152;28;20212;-81
2023/02/20 06:24:45;;;;;;;13.47;7.70;;;7.70;99.90;;;;;;5097552;28;20197;-80
2023/02/20 06:27:12;;;;;;;14.47;7.40;;;7.90;99.90;;;;;;5097395;28;20204;-82
2023/02/20 06:29:41;;;;;;;12.57;7.13;;;7.80;99.90;;;;;;5098548;28;20213;-79
2023/02/20 06:32:08;;;;;;;14.73;8.30;;;7.80;99.90;;;;;;5098616;28;20205;-79
2023/02/20 06:34:36;;;;;;;15.17;8.10;;;7.70;99.90;;;;;;5097798;28;20220;-79
2023/02/20 06:37:07;;;;;;;12.63;7.67;;;7.80;99.90;;;;;;5096073;28;20216;-79
2023/02/20 06:39:36;;;;;;;15.97;7.93;;;7.80;99.90;;;;;;5096589;28;20216;-82
2023/02/20 06:42:03;;;;;;;19.57;7.93;;;7.80;99.90;;;;;;5096961;28;20582;-79
2023/02/20 06:44:32;;;;;;;20.07;8.10;;;7.90;99.90;;;;;;5096600;28;20209;-78
2023/02/20 06:46:59;;;;;;;19.30;7.50;;;7.80;99.90;;;;;;5095622;28;20213;-79
2023/02/20 06:49:25;;;;;;;17.47;7.80;;;7.80;99.90;;;;;;5087850;28;20201;-79
2023/02/20 06:51:53;;;;;;;14.77;8.10;;;7.90;99.90;;;;;;5081497;28;20575;-80
2023/02/20 06:54:21;;;;;;;17.57;7.77;;;7.80;99.90;;;;;;5095364;28;20205;-81
2023/02/20 06:56:50;;;;;;;19.07;7.73;;;7.80;99.90;;;;;;5093717;28;20616;-80
2023/02/20 06:59:16;;;;;;;21.07;8.27;;;7.90;99.90;;;;;;5093343;28;20244;-80
2023/02/20 07:01:43;;;;;;;18.50;7.27;;;7.90;99.90;;;;;;5093117;28;20198;-77
2023/02/20 07:04:16;;;;;;;14.20;7.20;;;7.90;99.90;;;;;;5092800;28;20220;-80
2023/02/20 07:06:43;;;;;;;15.33;7.30;;;7.90;99.90;;;;;;5091740;28;20205;-80
2023/02/20 07:09:10;;;;;;;14.37;6.80;;;7.90;99.90;;;;;;5083996;28;20194;-80
2023/02/20 07:11:37;;;;;;;14.67;6.63;;;8.10;99.90;;;;;;5093919;28;20204;-80
2023/02/20 07:14:05;;;;;;;13.97;6.57;;;8.00;99.90;;;;;;5093804;28;20212;-79
2023/02/20 07:16:32;;;;;;;18.57;7.17;;;8.00;99.90;;;;;;5092635;28;20217;-80
2023/02/20 07:18:59;;;;;;;15.37;6.93;;;8.10;99.90;;;;;;5093199;28;20193;-80
2023/02/20 07:21:27;;;;;;;17.13;7.17;;;8.20;99.90;;;;;;5097438;28;20232;-81
2023/02/20 07:23:54;;;;;;;11.63;6.63;;;8.20;99.90;;;;;;5097498;28;20704;-80
2023/02/20 07:26:22;;;;;;;15.27;6.43;;;8.20;99.90;;;;;;5097679;28;20211;-81
2023/02/20 07:28:49;;;;;;;19.57;6.50;;;8.20;99.90;;;;;;5095765;28;20197;-81
2023/02/20 07:31:18;;;;;;;13.53;6.80;;;8.20;99.90;;;;;;5096184;28;20209;-82
2023/02/20 07:33:45;;;;;;;17.20;6.97;;;8.10;99.90;;;;;;5095921;28;20667;-80
2023/02/20 07:36:13;;;;;;;12.13;6.40;;;8.10;99.90;;;;;;5095106;28;20208;-80
2023/02/20 07:38:40;;;;;;;10.97;6.33;;;8.10;99.90;;;;;;5095261;28;20288;-78
2023/02/20 07:41:08;;;;;;;12.63;6.63;;;8.20;99.90;;;;;;5096145;28;20212;-79
2023/02/20 07:43:34;;;;;;;12.03;6.17;;;8.20;99.90;;;;;;5095794;28;20563;-80
2023/02/20 07:46:01;;;;;;;18.37;6.33;;;8.20;99.90;;;;;;5095676;28;20216;-78
2023/02/20 07:48:30;;;;;;;18.70;7.65;;;8.20;99.90;;;;;;5094968;28;20427;-81
2023/02/20 07:50:56;;;;;;;16.30;6.10;;;8.40;99.90;;;;;;5095442;28;20205;-82
2023/02/20 07:53:23;;;;;;;10.77;6.53;;;8.40;99.90;;;;;;5096283;28;20216;-79
2023/02/20 07:55:50;;;;;;;14.97;6.70;;;8.30;99.90;;;;;;5096941;28;20216;-80
2023/02/20 07:58:17;;;;;;;13.87;5.80;;;8.30;99.90;;;;;;5097299;28;20205;-80
2023/02/20 08:00:44;;;;;;;14.53;6.30;;;8.30;99.90;;;;;;5094851;28;20205;-81
2023/02/20 08:03:11;;;;;;;14.40;6.77;;;8.30;99.90;;;;;;5094488;28;20220;-79
2023/02/20 08:05:39;;;;;;;14.23;6.63;;;8.30;99.90;;;;;;5095417;28;20217;-80
2023/02/20 08:08:06;;;;;;;12.70;5.83;;;8.20;99.90;;;;;;5096086;28;20212;-81
2023/02/20 08:10:33;;;;;;;20.10;5.93;;;8.30;99.90;;;;;;5089380;28;20214;-80
2023/02/20 08:13:01;;;;;;;13.63;6.13;;;8.30;99.90;;;;;;5090589;28;20205;-81
2023/02/20 08:15:30;;;;;;;15.90;6.10;;;8.30;99.90;;;;;;5094126;28;20193;-79
2023/02/20 08:17:57;;;;;;;15.43;7.68;;;8.30;99.90;;;;;;5095964;28;20495;-80
2023/02/20 08:20:24;;;;;;;16.70;7.57;;;8.40;99.90;;;;;;5093151;28;20201;-80
2023/02/20 08:22:53;;;;;;;10.07;5.50;;;8.50;99.90;;;;;;5095658;28;20228;-81
2023/02/20 08:25:19;;;;;;;14.93;5.73;;;8.50;99.90;;;;;;5095954;28;20676;-78
2023/02/20 08:27:49;;;;;;;14.03;6.07;;;8.40;99.90;;;;;;5096849;28;20216;-81
2023/02/20 08:30:22;;;;;;;16.07;6.00;;;8.40;99.90;;;;;;5096296;28;20224;-78
2023/02/20 08:32:49;;;;;;;16.37;6.40;;;8.40;99.90;;;;;;5086384;28;20590;-82
2023/02/20 08:35:16;;;;;;;14.60;6.43;;;8.40;99.90;;;;;;5089945;28;20207;-79
2023/02/20 08:37:43;;;;;;;13.00;6.33;;;8.40;99.90;;;;;;5094085;28;20212;-80
2023/02/20 08:40:12;;;;;;;15.63;6.87;;;8.50;99.90;;;;;;5094350;28;20205;-78
2023/02/20 08:42:39;;;;;;;22.07;8.00;;;8.50;99.90;;;;;;5093598;28;20449;-80
2023/02/20 08:45:07;;;;;;;11.97;6.23;;;8.50;99.90;;;;;;5094004;28;20461;-77
2023/02/20 08:47:35;;;;;;;15.30;7.07;;;8.40;99.90;;;;;;5095263;28;20208;-80
2023/02/20 08:50:02;;;;;;;16.33;6.10;;;8.50;99.90;;;;;;5092307;28;20204;-81
2023/02/20 08:52:29;;;;;;;11.27;6.20;;;8.60;99.90;;;;;;5094319;28;20240;-82
2023/02/20 08:54:55;;;;;;;13.73;5.70;;;8.60;99.90;;;;;;5094585;28;20209;-81
2023/02/20 08:57:26;;;;;;;16.20;6.60;;;8.70;99.90;;;;;;5094785;28;20205;-80
2023/02/20 08:59:53;;;;;;;14.30;6.30;;;8.80;99.90;;;;;;5094665;28;20638;-81
2023/02/20 09:02:27;;;;;;;18.03;5.93;;;8.70;99.90;;;;;;5088179;28;20201;-79
2023/02/20 09:04:54;;;;;;;12.53;5.70;;;8.60;99.90;;;;;;5090463;28;20205;-81
2023/02/20 09:07:27;;;;;;;7.53;5.67;;;8.60;99.90;;;;;;5091385;28;20215;-80
2023/02/20 09:09:56;;;;;;;12.27;5.80;;;8.50;99.90;;;;;;5093722;28;20197;-82
2023/02/20 09:12:23;;;;;;;13.17;6.10;;;8.50;99.90;;;;;;5091545;28;20273;-81
2023/02/20 09:14:52;;;;;;;13.47;6.60;;;8.50;99.90;;;;;;5085754;28;20208;-80
2023/02/20 09:17:19;;;;;;;13.33;6.47;;;8.60;99.90;;;;;;5092171;28;20201;-81
2023/02/20 09:19:47;;;;;;;9.17;5.40;;;8.60;99.90;;;;;;5086743;28;20205;-81
2023/02/20 09:22:16;;;;;;;18.13;6.00;;;8.60;99.90;;;;;;5093527;28;20205;-83
2023/02/20 09:24:46;;;;;;;15.63;6.43;;;8.60;99.90;;;;;;5095920;28;20212;-80
2023/02/20 09:27:14;;;;;;;10.60;5.77;;;8.50;99.90;;;;;;5090849;28;20213;-79
2023/02/20 09:29:42;;;;;;;8.53;5.53;;;8.60;99.90;;;;;;5085038;28;20197;-79
2023/02/20 09:32:10;;;;;;;13.53;5.43;;;8.60;99.90;;;;;;5089770;28;20678;-79
2023/02/20 09:34:40;;;;;;;15.40;7.38;;;8.70;99.90;;;;;;5095790;28;20414;-79
2023/02/20 09:37:08;;;;;;;17.10;6.63;;;8.70;99.90;;;;;;5089732;28;20205;-80
2023/02/20 09:39:35;;;;;;;11.10;6.43;;;8.60;99.90;;;;;;5094344;28;20209;-79
2023/02/20 09:42:23;;;;;;;15.27;5.10;;;8.70;99.90;;;;;;5086357;28;20205;-79
2023/02/20 09:45:01;;;;;;;12.37;5.87;;;8.70;99.90;;;;;;5090860;28;20295;-79
2023/02/20 09:47:41;;;;;;;14.67;6.37;;;8.70;99.90;;;;;;5095436;28;20264;-79
2023/02/20 09:50:14;;;;;;;13.43;6.57;;;8.70;99.90;;;;;;5095079;28;20204;-80
2023/02/20 09:52:46;;;;;;;11.53;6.07;;;8.70;99.90;;;;;;5096561;28;20197;-79
2023/02/20 09:55:19;;;;;;;15.57;5.80;;;8.80;99.90;;;;;;5097173;28;20205;-80
2023/02/20 09:57:49;;;;;;;18.50;7.50;;;8.80;99.90;;;;;;5096546;28;20205;-80
2023/02/20 10:00:24;;;;;;;13.70;6.53;;;8.80;99.90;;;;;;5096133;28;20634;-80
2023/02/20 10:03:02;;;;;;;17.73;7.88;;;8.90;99.90;;;;;;5095388;28;20438;-80
2023/02/20 10:05:31;;;;;;;17.20;6.37;;;8.90;99.90;;;;;;5099432;28;20633;-80
2023/02/20 10:07:59;;;;;;;14.33;6.03;;;8.80;99.90;;;;;;5098172;28;20197;-80
2023/02/20 10:10:28;;;;;;;8.87;5.20;;;8.90;99.90;;;;;;5097110;28;20202;-80
2023/02/20 10:13:07;;;;;;;13.03;5.53;;;8.80;99.90;;;;;;5087229;28;20202;-81
2023/02/20 10:15:44;;;;;;;10.67;5.30;;;8.90;99.90;;;;;;5086003;28;20216;-80
2023/02/20 10:18:22;;;;;;;13.03;5.80;;;8.90;99.90;;;;;;5094154;28;20675;-80
2023/02/20 10:21:01;;;;;;;12.17;6.00;;;9.00;99.90;;;;;;5095709;28;20252;-79
2023/02/20 10:23:39;;;;;;;10.43;5.97;;;9.10;99.90;;;;;;5088239;28;20233;-80
2023/02/20 10:26:12;;;;;;;13.20;6.10;;;9.00;99.90;;;;;;5093503;28;20208;-81
2023/02/20 10:28:39;;;;;;;10.30;5.50;;;9.10;99.90;;;;;;5093344;28;20209;-81
2023/02/20 10:31:22;;;;;;;9.93;6.13;;;9.20;99.90;;;;;;5095543;28;20193;-81
2023/02/20 10:33:54;;;;;;;9.77;5.57;;;9.20;99.90;;;;;;5098450;28;20209;-79
2023/02/20 10:36:26;;;;;;;11.27;5.90;;;9.10;99.90;;;;;;5096860;28;20208;-78
2023/02/20 10:39:00;;;;;;;10.27;5.47;;;9.10;99.90;;;;;;5094720;28;20205;-76
2023/02/20 10:41:39;;;;;;;8.70;6.10;;;9.10;99.90;;;;;;5094290;28;20257;-80
2023/02/20 10:44:16;;;;;;;15.97;5.77;;;9.10;99.90;;;;;;5090299;28;20241;-78
2023/02/20 10:46:52;;;;;;;11.57;5.73;;;9.10;99.90;;;;;;5091961;28;20197;-79
2023/02/20 10:49:31;;;;;;;11.80;5.57;;;9.10;99.90;;;;;;5093511;28;20197;-80
2023/02/20 10:52:02;;;;;;;13.97;6.43;;;9.20;99.90;;;;;;5095322;28;20332;-80
2023/02/20 10:54:37;;;;;;;8.97;5.33;;;9.20;99.90;;;;;;5093243;28;20576;-78
2023/02/20 10:57:11;;;;;;;7.90;5.33;;;9.20;99.90;;;;;;5084158;28;20687;-82
2023/02/20 10:59:48;;;;;;;7.93;4.57;;;9.10;99.90;;;;;;5095314;28;20200;-78
2023/02/20 11:02:19;;;;;;;15.07;6.27;;;9.10;99.90;;;;;;5100138;28;20193;-80
2023/02/20 11:04:53;;;;;;;12.63;5.07;;;9.20;99.90;;;;;;5099921;28;20224;-82
2023/02/20 11:07:22;;;;;;;11.87;5.33;;;9.20;99.90;;;;;;5100267;28;20225;-78
2023/02/20 11:09:49;;;;;;;9.70;4.17;;;9.10;99.90;;;;;;5098991;28;20209;-80
2023/02/20 11:12:31;;;;;;;12.83;5.63;;;9.20;99.90;;;;;;5099081;28;20201;-78
2023/02/20 11:15:05;;;;;;;9.03;4.20;;;9.30;99.90;;;;;;5099631;28;20208;-81
2023/02/20 11:17:34;;;;;;;9.00;4.57;;;9.20;99.90;;;;;;5100382;28;20270;-80
2023/02/20 11:20:05;;;;;;;13.10;4.87;;;9.30;99.90;;;;;;5100065;28;20543;-77
2023/02/20 11:22:44;;;;;;;11.00;4.93;;;9.30;99.90;;;;;;5097419;28;20197;-79
2023/02/20 11:25:17;;;;;;;15.38;6.03;;;9.30;99.90;;;;;;5098802;28;20442;-85
2023/02/20 11:27:53;;;;;;;7.80;4.20;;;9.40;99.90;;;;;;5100595;28;20200;-79
2023/02/20 11:30:29;;;;;;;8.57;3.90;;;9.30;99.90;;;;;;5098929;28;20599;-80
2023/02/20 11:33:02;;;;;;;12.37;4.77;;;9.30;99.90;;;;;;5096575;28;20193;-81
2023/02/20 11:35:34;;;;;;;14.80;4.77;;;9.20;99.90;;;;;;5088705;28;20201;-78
2023/02/20 11:38:34;;;;;;;11.30;4.87;;;9.20;99.90;;;;;;5099009;28;20212;-81
2023/02/20 11:41:25;;;;;;;12.20;4.87;;;9.30;99.90;;;;;;5096462;28;20227;-80
2023/02/20 11:44:07;;;;;;;11.07;4.50;;;9.20;99.90;;;;;;5096601;28;20236;-79
2023/02/20 11:46:33;;;;;;;8.57;4.10;;;9.30;99.90;;;;;;5087911;28;20595;-80
2023/02/20 11:49:04;;;;;;;8.87;4.17;;;9.40;99.90;;;;;;5094410;28;20197;-78
2023/02/20 11:51:37;;;;;;;11.05;4.78;;;9.40;99.90;;;;;;5095256;28;20663;-79
2023/02/20 11:54:10;;;;;;;11.90;4.30;;;9.50;99.90;;;;;;5097218;28;20205;-80
2023/02/20 11:56:37;;;;;;;9.23;4.27;;;9.70;99.90;;;;;;5082337;28;20280;-77
2023/02/20 11:59:28;;;;;;;9.63;4.50;;;9.80;99.90;;;;;;5095495;28;20197;-81
2023/02/20 12:01:54;;;;;;;16.07;4.10;;;9.80;99.90;;;;;;5084344;28;20217;-80
2023/02/20 12:04:23;;;;;;;7.93;4.30;;;9.90;99.90;;;;;;5077265;28;20245;-78
2023/02/20 12:06:52;;;;;;;8.53;4.47;;;9.80;99.90;;;;;;5076264;28;20229;-80
2023/02/20 12:09:22;;;;;;;9.70;4.80;;;9.80;99.90;;;;;;5079645;28;20548;-81
2023/02/20 12:11:53;;;;;;;7.97;4.47;;;9.80;99.90;;;;;;5088590;28;20198;-80
2023/02/20 12:14:20;;;;;;;10.67;4.20;;;9.70;99.90;;;;;;5089391;28;20295;-79
2023/02/20 12:17:03;;;;;;;9.80;4.17;;;9.70;99.90;;;;;;5095133;28;20205;-82
2023/02/20 12:19:43;;;;;;;9.03;4.20;;;9.70;99.90;;;;;;5094286;28;20748;-79
2023/02/20 12:22:22;;;;;;;9.43;4.40;;;9.80;99.90;;;;;;5088073;28;20287;-78
2023/02/20 12:25:04;;;;;;;7.57;4.50;;;9.90;99.90;;;;;;5092148;28;20232;-78
2023/02/20 12:27:52;;;;;;;9.10;4.37;;;10.00;99.90;;;;;;5089407;28;20197;-77
2023/02/20 12:30:29;;;;;;;8.97;4.40;;;10.00;99.90;;;;;;5083195;28;20197;-78
2023/02/20 12:33:09;;;;;;;7.93;4.43;;;10.10;99.90;;;;;;5095909;28;20205;-76
2023/02/20 12:35:42;;;;;;;9.50;4.57;;;10.10;99.90;;;;;;5094451;28;20262;-78
2023/02/20 12:38:27;;;;;;;11.03;4.13;;;10.10;99.90;;;;;;5094314;28;20233;-75
2023/02/20 12:41:24;;;;;;;9.37;3.90;;;10.30;99.90;;;;;;5094511;28;20216;-76
2023/02/20 12:44:03;;;;;;;8.83;4.03;;;10.30;99.90;;;;;;5093469;28;20233;-77
2023/02/20 12:46:37;;;;;;;7.07;3.35;;;10.20;99.90;;;;;;5094618;28;20492;-75
2023/02/20 12:49:25;;;;;;;6.80;3.73;;;10.20;99.90;;;;;;5094897;28;20197;-76
2023/02/20 12:51:55;;;;;;;6.93;3.93;;;10.20;99.90;;;;;;5094553;28;20640;-78
2023/02/20 12:54:36;;;;;;;5.80;3.60;;;10.20;99.90;;;;;;5095303;28;20212;-77
2023/02/20 12:57:12;;;;;;;5.87;3.37;;;10.10;99.90;;;;;;5094588;28;20224;-77
2023/02/20 12:59:46;;;;;;;11.47;4.50;;;10.20;99.90;;;;;;5094912;28;20213;-75
2023/02/20 13:02:22;;;;;;;7.80;3.93;;;10.10;99.90;;;;;;5093622;28;20192;-77
2023/02/20 13:04:53;;;;;;;9.20;3.20;;;10.10;99.90;;;;;;5087786;28;20227;-77
2023/02/20 13:07:25;;;;;;;7.40;3.70;;;10.20;99.90;;;;;;5087678;28;20217;-80
2023/02/20 13:10:03;;;;;;;5.63;4.03;;;10.30;99.90;;;;;;5093870;28;20213;-77
2023/02/20 13:12:30;;;;;;;7.87;3.67;;;10.20;99.90;;;;;;5093402;28;20201;-78
2023/02/20 13:15:18;;;;;;;9.38;4.28;;;10.00;99.90;;;;;;5093638;28;20426;-77
2023/02/20 13:17:52;;;;;;;11.07;4.00;;;10.10;99.90;;;;;;5092783;28;20212;-76
2023/02/20 13:20:22;;;;;;;6.87;3.30;;;10.20;99.90;;;;;;5093482;28;20216;-75
2023/02/20 13:23:00;;;;;;;13.80;4.50;;;10.20;99.90;;;;;;5093648;28;20614;-75